createdAt,value
2023-01-31T00:00:07.955Z,99347.16
2023-01-31T00:02:49.889Z,99340.56
2023-01-31T00:05:31.301Z,99344.41
2023-01-31T00:08:10.093Z,99332.03
2023-01-31T00:10:47.295Z,99342.50
2023-01-31T00:13:27.668Z,99329.47
2023-01-31T00:16:04.028Z,99340.63
2023-01-31T00:18:41.857Z,99336.47
2023-01-31T00:21:20.731Z,99341.63
2023-01-31T00:23:58.002Z,99342.63
2023-01-31T00:26:44.020Z,99342.63
2023-01-31T00:29:24.349Z,99343.81
2023-01-31T00:31:59.188Z,99339.72
2023-01-31T00:34:38.688Z,99362.88
2023-01-31T00:37:12.052Z,99351.59
2023-01-31T00:39:49.712Z,99361.28
2023-01-31T00:42:25.742Z,99349.25
2023-01-31T00:45:08.924Z,99344.38
2023-01-31T00:47:53.090Z,99348.44
2023-01-31T00:50:28.977Z,99353.97
2023-01-31T00:53:15.092Z,99343.94
2023-01-31T00:55:59.932Z,99345.47
2023-01-31T00:58:35.094Z,99351.97
2023-01-31T01:01:26.228Z,99354.78
2023-01-31T01:04:02.123Z,99351.94
2023-01-31T01:06:45.888Z,99352.28
2023-01-31T01:09:20.882Z,99351.25
2023-01-31T01:11:55.979Z,99359.19
2023-01-31T01:14:28.240Z,99352.38
2023-01-31T01:17:03.120Z,99348.13
2023-01-31T01:19:41.343Z,99352.09
2023-01-31T01:22:24.405Z,99343.44
2023-01-31T01:25:07.778Z,99348.84
2023-01-31T01:27:38.583Z,99357.19
2023-01-31T01:30:17.839Z,99365.53
2023-01-31T01:32:58.132Z,99370.31
2023-01-31T01:35:41.588Z,99366.06
2023-01-31T01:38:24.881Z,99347.88
2023-01-31T01:41:09.987Z,99362.81
2023-01-31T01:43:56.617Z,99377.81
2023-01-31T01:46:46.991Z,99372.13
2023-01-31T01:49:31.278Z,99370.81
2023-01-31T01:52:12.247Z,99382.16
2023-01-31T01:55:09.837Z,99379.81
2023-01-31T01:57:48.173Z,99382.66
2023-01-31T02:00:33.890Z,99375.03
2023-01-31T02:03:10.880Z,99376.97
2023-01-31T02:05:59.000Z,99364.78
2023-01-31T02:08:43.769Z,99376.25
2023-01-31T02:11:31.658Z,99394.06
2023-01-31T02:14:06.711Z,99408.34
2023-01-31T02:16:40.072Z,99412.56
2023-01-31T02:19:41.351Z,99391.22
2023-01-31T02:22:46.809Z,99402.41
2023-01-31T02:25:37.725Z,99399.38
2023-01-31T02:28:32.476Z,99408.91
2023-01-31T02:31:40.400Z,99414.44
2023-01-31T02:34:19.888Z,99431.25
2023-01-31T02:37:19.934Z,99433.53
2023-01-31T02:40:27.461Z,99430.09
2023-01-31T02:43:25.158Z,99434.44
2023-01-31T02:46:04.773Z,99432.28
2023-01-31T02:48:56.375Z,99441.50
2023-01-31T02:52:06.937Z,99439.66
2023-01-31T02:54:58.826Z,99446.38
2023-01-31T02:57:37.398Z,99446.50
2023-01-31T03:00:18.294Z,99448.19
2023-01-31T03:02:56.444Z,99455.69
2023-01-31T03:05:31.935Z,99459.81
2023-01-31T03:08:07.963Z,99461.84
2023-01-31T03:11:01.003Z,99467.69
2023-01-31T03:13:39.479Z,99464.16
2023-01-31T03:16:59.943Z,99468.81
2023-01-31T03:19:42.007Z,99466.00
2023-01-31T03:22:24.922Z,99469.19
2023-01-31T03:25:03.513Z,99472.16
2023-01-31T03:27:50.240Z,99477.00
2023-01-31T03:30:52.134Z,99477.50
2023-01-31T03:33:39.565Z,99475.81
2023-01-31T03:36:29.127Z,99484.31
2023-01-31T03:39:29.067Z,99486.16
2023-01-31T03:42:14.262Z,99476.31
2023-01-31T03:45:01.574Z,99497.09
2023-01-31T03:47:53.053Z,99492.09
2023-01-31T03:50:36.356Z,99485.41
2023-01-31T03:53:25.496Z,99489.72
2023-01-31T03:56:15.532Z,99495.91
2023-01-31T03:58:57.323Z,99486.09
2023-01-31T04:01:42.130Z,99512.44
2023-01-31T04:04:33.416Z,99518.09
2023-01-31T04:07:10.496Z,99511.44
2023-01-31T04:09:46.489Z,99515.44
2023-01-31T04:12:25.792Z,99522.91
2023-01-31T04:15:03.363Z,99526.91
2023-01-31T04:17:43.801Z,99516.06
2023-01-31T04:20:20.092Z,99519.75
2023-01-31T04:23:03.916Z,99525.09
2023-01-31T04:25:38.684Z,99543.78
2023-01-31T04:28:13.586Z,99547.44
2023-01-31T04:30:45.381Z,99539.47
2023-01-31T04:33:32.040Z,99542.47
2023-01-31T04:36:10.115Z,99542.16
2023-01-31T04:38:48.267Z,99555.97
2023-01-31T04:41:26.431Z,99549.31
2023-01-31T04:44:07.086Z,99544.34
2023-01-31T04:46:42.113Z,99553.81
2023-01-31T04:49:23.252Z,99542.81
2023-01-31T04:52:03.117Z,99555.97
2023-01-31T04:54:37.930Z,99559.78
2023-01-31T04:57:22.331Z,99558.94
2023-01-31T04:59:59.948Z,99569.44
2023-01-31T05:02:33.770Z,99569.63
2023-01-31T05:05:10.936Z,99571.78
2023-01-31T05:07:46.784Z,99578.94
2023-01-31T05:10:22.375Z,99580.44
2023-01-31T05:13:06.002Z,99583.25
2023-01-31T05:15:40.687Z,99578.41
2023-01-31T05:18:21.370Z,99583.25
2023-01-31T05:20:59.770Z,99590.09
2023-01-31T05:23:36.915Z,99579.28
2023-01-31T05:26:14.961Z,99586.09
2023-01-31T05:28:52.874Z,99586.25
2023-01-31T05:31:27.863Z,99583.59
2023-01-31T05:34:10.641Z,99589.44
2023-01-31T05:36:52.328Z,99577.28
2023-01-31T05:39:29.906Z,99584.31
2023-01-31T05:42:03.991Z,99586.94
2023-01-31T05:44:36.935Z,99595.78
2023-01-31T05:47:23.551Z,99588.97
2023-01-31T05:50:01.957Z,99590.31
2023-01-31T05:52:35.701Z,99596.31
2023-01-31T05:55:11.574Z,99598.44
2023-01-31T05:57:48.339Z,99600.47
2023-01-31T06:00:23.927Z,99602.78
2023-01-31T06:03:09.477Z,99608.78
2023-01-31T06:05:44.718Z,99601.13
2023-01-31T06:08:28.137Z,99599.75
2023-01-31T06:11:12.481Z,99609.78
2023-01-31T06:13:49.411Z,99607.94
2023-01-31T06:16:27.886Z,99620.44
2023-01-31T06:19:02.818Z,99611.41
2023-01-31T06:21:37.874Z,99624.09
2023-01-31T06:24:12.662Z,99624.09
2023-01-31T06:26:44.890Z,99627.09
2023-01-31T06:29:16.819Z,99626.22
2023-01-31T06:31:53.654Z,99640.22
2023-01-31T06:34:35.007Z,99628.75
2023-01-31T06:37:14.392Z,99627.75
2023-01-31T06:39:52.305Z,99653.25
2023-01-31T06:42:35.210Z,99638.41
2023-01-31T06:45:19.735Z,99651.91
2023-01-31T06:48:05.209Z,99646.25
2023-01-31T06:50:39.989Z,99647.06
2023-01-31T06:53:22.925Z,99654.56
2023-01-31T06:56:03.868Z,99671.25
2023-01-31T06:58:41.904Z,99668.38
2023-01-31T07:01:24.303Z,99670.06
2023-01-31T07:04:02.279Z,99671.22
2023-01-31T07:06:58.927Z,99668.72
2023-01-31T07:09:34.057Z,99682.38
2023-01-31T07:12:04.480Z,99676.06
2023-01-31T07:14:47.759Z,99680.03
2023-01-31T07:17:25.121Z,99678.69
2023-01-31T07:19:59.927Z,99685.03
2023-01-31T07:22:38.450Z,99679.72
2023-01-31T07:25:18.471Z,99684.69
2023-01-31T07:27:56.907Z,99692.84
2023-01-31T07:30:30.605Z,99693.16
2023-01-31T07:33:05.630Z,99696.19
2023-01-31T07:35:51.246Z,99707.69
2023-01-31T07:38:29.991Z,99697.84
2023-01-31T07:41:21.193Z,99714.00
2023-01-31T07:43:59.063Z,99717.00
2023-01-31T07:46:34.792Z,99733.16
2023-01-31T07:49:07.464Z,99739.81
2023-01-31T07:51:43.604Z,99745.63
2023-01-31T07:54:18.996Z,99752.00
2023-01-31T07:56:53.952Z,99758.97
2023-01-31T07:59:32.330Z,99762.47
2023-01-31T08:02:17.776Z,99769.00
2023-01-31T08:04:46.865Z,99774.50
2023-01-31T08:07:27.157Z,99788.00
2023-01-31T08:10:01.508Z,99793.50
2023-01-31T08:12:43.005Z,99791.47
2023-01-31T08:15:14.729Z,99794.94
2023-01-31T08:17:45.203Z,99799.19
2023-01-31T08:20:20.173Z,99803.84
2023-01-31T08:22:55.250Z,99807.84
2023-01-31T08:25:30.586Z,99803.00
2023-01-31T08:28:03.441Z,99809.25
2023-01-31T08:31:08.251Z,99811.13
2023-01-31T08:33:47.265Z,99815.66
2023-01-31T08:36:29.721Z,99815.63
2023-01-31T08:39:05.044Z,99833.59
2023-01-31T08:41:42.841Z,99831.06
2023-01-31T08:44:21.422Z,99843.22
2023-01-31T08:46:56.325Z,99847.03
2023-01-31T08:49:33.662Z,99845.19
2023-01-31T08:52:08.635Z,99839.31
2023-01-31T08:55:02.574Z,99856.63
2023-01-31T08:57:43.244Z,99844.16
2023-01-31T09:00:34.073Z,99855.47
2023-01-31T09:03:22.529Z,99861.22
2023-01-31T09:06:14.876Z,99864.75
2023-01-31T09:08:52.209Z,99861.50
2023-01-31T09:11:33.622Z,99878.59
2023-01-31T09:14:09.832Z,99870.34
2023-01-31T09:16:46.769Z,99876.69
2023-01-31T09:19:19.900Z,99880.34
2023-01-31T09:21:57.688Z,99881.56
2023-01-31T09:24:35.055Z,99887.09
2023-01-31T09:27:17.847Z,99888.31
2023-01-31T09:29:51.588Z,99887.72
2023-01-31T09:32:26.456Z,99890.81
2023-01-31T09:35:02.901Z,99893.41
2023-01-31T09:37:40.896Z,99889.66
2023-01-31T09:40:33.804Z,99889.34
2023-01-31T09:43:16.250Z,99892.31
2023-01-31T09:46:03.584Z,99894.75
2023-01-31T09:48:49.211Z,99908.59
2023-01-31T09:51:29.550Z,99899.84
2023-01-31T09:54:06.181Z,99892.16
2023-01-31T09:57:05.553Z,99901.97
2023-01-31T10:00:03.049Z,99900.78
2023-01-31T10:03:03.197Z,99903.63
2023-01-31T10:06:24.327Z,99899.31
2023-01-31T10:09:17.101Z,99898.69
2023-01-31T10:11:59.445Z,99911.13
2023-01-31T10:14:49.419Z,99897.44
2023-01-31T10:17:49.884Z,99900.72
2023-01-31T10:20:42.691Z,99901.09
2023-01-31T10:23:31.492Z,99900.69
2023-01-31T10:26:21.185Z,99903.91
2023-01-31T10:29:07.001Z,99886.72
2023-01-31T10:32:20.525Z,99892.53
2023-01-31T10:35:37.031Z,99888.25
2023-01-31T10:38:24.451Z,99895.38
2023-01-31T10:41:14.523Z,99899.66
2023-01-31T10:44:23.803Z,99884.78
2023-01-31T10:47:06.535Z,99871.94
2023-01-31T10:49:59.203Z,99886.84
2023-01-31T10:53:13.494Z,99898.75
2023-01-31T10:56:12.688Z,99900.25
2023-01-31T10:58:50.733Z,99889.66
2023-01-31T11:01:31.314Z,99898.63
2023-01-31T11:04:17.113Z,99901.34
2023-01-31T11:06:52.239Z,99890.56
2023-01-31T11:09:56.444Z,99895.72
2023-01-31T11:13:04.496Z,99895.78
2023-01-31T11:16:00.581Z,99887.47
2023-01-31T11:18:51.893Z,99893.13
2023-01-31T11:21:32.130Z,99874.31
2023-01-31T11:24:18.885Z,99870.88
2023-01-31T11:27:15.727Z,99872.72
2023-01-31T11:29:59.984Z,99860.19
2023-01-31T11:32:42.435Z,99860.06
2023-01-31T11:35:37.901Z,99867.84
2023-01-31T11:38:16.531Z,99862.06
2023-01-31T11:40:58.432Z,99862.63
2023-01-31T11:43:42.557Z,99867.38
2023-01-31T11:46:22.056Z,99870.34
2023-01-31T11:48:57.970Z,99864.81
2023-01-31T11:51:34.091Z,99868.97
2023-01-31T11:54:07.870Z,99857.63
2023-01-31T11:56:46.861Z,99868.22
2023-01-31T11:59:32.093Z,99866.09
2023-01-31T12:02:24.349Z,99860.75
2023-01-31T12:05:02.929Z,99870.91
2023-01-31T12:07:53.631Z,99876.91
2023-01-31T12:10:45.627Z,99862.31
2023-01-31T12:13:29.094Z,99871.06
2023-01-31T12:16:10.445Z,99879.28
2023-01-31T12:19:01.024Z,99873.13
2023-01-31T12:21:50.990Z,99874.97
2023-01-31T12:24:50.875Z,99883.69
2023-01-31T12:27:38.117Z,99881.53
2023-01-31T12:30:44.762Z,99880.25
2023-01-31T12:33:36.021Z,99879.56
2023-01-31T12:36:22.801Z,99884.56
2023-01-31T12:39:24.131Z,99887.50
2023-01-31T12:42:17.100Z,99882.47
2023-01-31T12:45:14.522Z,99880.81
2023-01-31T12:48:12.573Z,99886.28
2023-01-31T12:51:20.865Z,99882.34
2023-01-31T12:54:06.236Z,99884.13
2023-01-31T12:57:12.639Z,99879.84
2023-01-31T12:59:51.091Z,99887.19
2023-01-31T13:02:46.886Z,99882.41
2023-01-31T13:05:44.673Z,99875.44
2023-01-31T13:09:01.592Z,99875.72
2023-01-31T13:12:16.544Z,99877.22
2023-01-31T13:15:05.599Z,99872.34
2023-01-31T13:17:40.035Z,99881.41
2023-01-31T13:20:29.336Z,99884.19
2023-01-31T13:23:14.643Z,99881.09
2023-01-31T13:26:00.846Z,99883.78
2023-01-31T13:28:37.638Z,99887.00
2023-01-31T13:31:40.736Z,99890.63
2023-01-31T13:34:22.758Z,99885.53
2023-01-31T13:37:30.402Z,99888.84
2023-01-31T13:40:06.751Z,99887.72
2023-01-31T13:42:55.639Z,99899.47
2023-01-31T13:45:52.627Z,99898.06
2023-01-31T13:48:42.815Z,99901.16
2023-01-31T13:51:21.112Z,99903.50
2023-01-31T13:53:59.159Z,99901.44
2023-01-31T13:56:35.006Z,99903.66
2023-01-31T13:59:25.279Z,99896.94
2023-01-31T14:02:00.523Z,99907.22
2023-01-31T14:04:42.254Z,99893.66
2023-01-31T14:07:32.371Z,99909.41
2023-01-31T14:10:16.769Z,99918.06
2023-01-31T14:13:14.444Z,99914.53
2023-01-31T14:15:57.139Z,99924.34
2023-01-31T14:18:48.511Z,99923.88
2023-01-31T14:22:10.461Z,99929.34
2023-01-31T14:25:07.774Z,99932.09
2023-01-31T14:27:52.475Z,99918.75
2023-01-31T14:30:48.971Z,99923.19
2023-01-31T14:33:29.064Z,99934.41
2023-01-31T14:37:02.883Z,99925.09
2023-01-31T14:40:27.074Z,99926.28
2023-01-31T14:44:00.893Z,99926.59
2023-01-31T14:47:07.820Z,99923.91
2023-01-31T14:50:11.229Z,99923.91
2023-01-31T14:53:08.682Z,99925.25
2023-01-31T14:56:13.254Z,99919.28
2023-01-31T15:00:06.885Z,99926.13
2023-01-31T15:03:15.963Z,99924.44
2023-01-31T15:05:56.791Z,99920.84
2023-01-31T15:08:43.092Z,99924.31
2023-01-31T15:11:42.331Z,99925.13
2023-01-31T15:14:50.906Z,99936.69
2023-01-31T15:17:40.096Z,99927.38
2023-01-31T15:20:26.256Z,99928.72
2023-01-31T15:23:19.462Z,99935.16
2023-01-31T15:25:56.962Z,99936.16
2023-01-31T15:28:37.494Z,99931.88
2023-01-31T15:31:31.316Z,99938.06
2023-01-31T15:34:28.924Z,99933.56
2023-01-31T15:37:22.788Z,99945.59
2023-01-31T15:40:13.850Z,99930.94
2023-01-31T15:42:52.782Z,99931.47
2023-01-31T15:45:37.558Z,99935.81
2023-01-31T15:48:15.753Z,99931.97
2023-01-31T15:51:02.483Z,99941.84
2023-01-31T15:53:46.795Z,99939.50
2023-01-31T15:56:40.360Z,99933.16
2023-01-31T15:59:15.187Z,99931.16
2023-01-31T16:01:58.442Z,99931.31
2023-01-31T16:04:45.462Z,99935.50
2023-01-31T16:07:31.999Z,99937.84
2023-01-31T16:10:13.847Z,99936.81
2023-01-31T16:12:57.809Z,99940.50
2023-01-31T16:15:41.175Z,99938.50
2023-01-31T16:18:25.079Z,99949.34
2023-01-31T16:21:17.558Z,99938.00
2023-01-31T16:24:02.822Z,99948.19
2023-01-31T16:26:53.413Z,99941.19
2023-01-31T16:29:50.764Z,99943.19
2023-01-31T16:32:33.405Z,99945.03
2023-01-31T16:35:24.533Z,99947.84
2023-01-31T16:38:26.630Z,99944.34
2023-01-31T16:41:00.942Z,99949.38
2023-01-31T16:43:43.934Z,99945.88
2023-01-31T16:46:45.566Z,99946.34
2023-01-31T16:49:27.631Z,99938.34
2023-01-31T16:52:43.247Z,99950.88
2023-01-31T16:55:27.547Z,99947.84
2023-01-31T16:58:10.922Z,99943.19
2023-01-31T17:00:54.098Z,99948.34
2023-01-31T17:03:36.043Z,99938.00
2023-01-31T17:06:13.519Z,99942.84
2023-01-31T17:08:51.778Z,99938.50
2023-01-31T17:11:42.103Z,99942.50
2023-01-31T17:14:23.676Z,99944.84
2023-01-31T17:17:04.705Z,99947.84
2023-01-31T17:19:44.544Z,99945.50
2023-01-31T17:22:27.931Z,99951.88
2023-01-31T17:25:05.264Z,99949.50
2023-01-31T17:27:58.326Z,99948.16
2023-01-31T17:30:31.472Z,99952.34
2023-01-31T17:33:12.055Z,99951.84
2023-01-31T17:35:51.409Z,99946.16
2023-01-31T17:38:27.361Z,99947.81
2023-01-31T17:41:01.085Z,99946.66
2023-01-31T17:43:36.407Z,99950.34
2023-01-31T17:46:22.176Z,99950.16
2023-01-31T17:48:59.721Z,99942.00
2023-01-31T17:51:40.989Z,99950.50
2023-01-31T17:54:22.754Z,99941.47
2023-01-31T17:57:03.355Z,99939.47
2023-01-31T17:59:40.968Z,99937.44
2023-01-31T18:02:26.520Z,99940.81
2023-01-31T18:05:04.818Z,99944.81
2023-01-31T18:07:37.528Z,99937.81
2023-01-31T18:10:22.346Z,99942.81
2023-01-31T18:13:02.844Z,99935.47
2023-01-31T18:15:52.106Z,99930.28
2023-01-31T18:18:30.617Z,99936.31
2023-01-31T18:21:13.601Z,99944.00
2023-01-31T18:24:00.469Z,99933.63
2023-01-31T18:26:45.331Z,99937.16
2023-01-31T18:29:23.151Z,99937.16
2023-01-31T18:32:09.643Z,99936.97
2023-01-31T18:34:44.355Z,99930.13
2023-01-31T18:37:20.691Z,99933.66
2023-01-31T18:39:59.037Z,99934.63
2023-01-31T18:42:34.322Z,99934.47
2023-01-31T18:45:14.205Z,99934.13
2023-01-31T18:47:51.598Z,99928.78
2023-01-31T18:50:32.397Z,99924.97
2023-01-31T18:53:12.188Z,99926.47
2023-01-31T18:55:50.689Z,99931.50
2023-01-31T18:58:29.951Z,99926.97
2023-01-31T19:01:13.714Z,99923.13
2023-01-31T19:03:48.098Z,99922.13
2023-01-31T19:06:26.843Z,99925.31
2023-01-31T19:09:11.513Z,99917.13
2023-01-31T19:11:52.133Z,99928.13
2023-01-31T19:14:37.732Z,99921.97
2023-01-31T19:17:12.371Z,99931.97
2023-01-31T19:19:47.112Z,99935.13
2023-01-31T19:22:24.453Z,99941.66
2023-01-31T19:25:13.569Z,99930.31
2023-01-31T19:27:57.233Z,99924.44
2023-01-31T19:30:41.474Z,99929.16
2023-01-31T19:33:16.130Z,99924.97
2023-01-31T19:35:54.296Z,99922.63
2023-01-31T19:38:45.643Z,99918.97
2023-01-31T19:41:27.343Z,99913.44
2023-01-31T19:44:12.890Z,99909.78
2023-01-31T19:46:52.988Z,99908.97
2023-01-31T19:49:39.471Z,99908.13
2023-01-31T19:52:11.016Z,99903.97
2023-01-31T19:54:45.823Z,99897.13
2023-01-31T19:57:18.290Z,99892.63
2023-01-31T20:00:02.267Z,99904.78
2023-01-31T20:02:47.075Z,99895.81
2023-01-31T20:05:22.805Z,99891.25
2023-01-31T20:08:04.328Z,99892.28
2023-01-31T20:10:49.753Z,99899.78
2023-01-31T20:13:30.101Z,99893.78
2023-01-31T20:16:09.934Z,99887.09
2023-01-31T20:18:45.899Z,99882.44
2023-01-31T20:21:24.880Z,99894.78
2023-01-31T20:24:02.693Z,99885.25
2023-01-31T20:26:37.698Z,99891.59
2023-01-31T20:29:12.462Z,99886.75
2023-01-31T20:32:02.285Z,99888.78
2023-01-31T20:34:34.399Z,99887.75
2023-01-31T20:37:12.025Z,99886.25
2023-01-31T20:39:50.162Z,99889.91
2023-01-31T20:42:25.642Z,99880.09
2023-01-31T20:45:10.813Z,99877.44
2023-01-31T20:47:51.919Z,99875.25
2023-01-31T20:50:32.795Z,99868.22
2023-01-31T20:53:21.622Z,99865.88
2023-01-31T20:56:09.856Z,99869.69
2023-01-31T20:58:48.224Z,99870.88
2023-01-31T21:01:31.740Z,99873.69
2023-01-31T21:04:09.245Z,99866.00
2023-01-31T21:06:44.927Z,99866.00
2023-01-31T21:09:25.448Z,99852.84
2023-01-31T21:11:58.627Z,99862.00
2023-01-31T21:14:31.033Z,99852.34
2023-01-31T21:17:08.847Z,99863.34
2023-01-31T21:19:49.600Z,99858.16
2023-01-31T21:22:24.134Z,99859.38
2023-01-31T21:25:10.468Z,99849.69
2023-01-31T21:27:48.830Z,99851.38
2023-01-31T21:30:26.538Z,99848.72
2023-01-31T21:33:06.893Z,99853.38
2023-01-31T21:35:49.702Z,99848.38
2023-01-31T21:38:25.564Z,99849.41
2023-01-31T21:41:19.646Z,99856.72
2023-01-31T21:43:54.779Z,99852.91
2023-01-31T21:46:33.191Z,99847.41
2023-01-31T21:49:09.062Z,99849.41
2023-01-31T21:51:46.452Z,99844.75
2023-01-31T21:54:29.820Z,99849.25
2023-01-31T21:57:09.673Z,99849.06
2023-01-31T21:59:45.450Z,99848.25
2023-01-31T22:02:22.885Z,99860.25
2023-01-31T22:04:57.237Z,99845.75
2023-01-31T22:07:46.184Z,99842.59
2023-01-31T22:10:21.914Z,99831.75
2023-01-31T22:12:56.703Z,99840.09
2023-01-31T22:15:29.701Z,99822.06
2023-01-31T22:18:07.107Z,99831.06
2023-01-31T22:20:45.345Z,99829.88
2023-01-31T22:23:25.698Z,99821.72
2023-01-31T22:26:10.300Z,99824.38
2023-01-31T22:28:48.742Z,99829.22
2023-01-31T22:31:26.555Z,99817.22
2023-01-31T22:34:03.580Z,99811.72
2023-01-31T22:36:39.182Z,99811.38
2023-01-31T22:39:19.769Z,99811.38
2023-01-31T22:41:57.267Z,99817.84
2023-01-31T22:44:40.153Z,99802.31
2023-01-31T22:47:16.965Z,99804.69
2023-01-31T22:49:54.717Z,99799.66
2023-01-31T22:52:35.240Z,99795.28
2023-01-31T22:55:12.612Z,99787.63
2023-01-31T22:57:58.723Z,99782.44
2023-01-31T23:00:33.108Z,99774.44
2023-01-31T23:03:09.718Z,99767.44
2023-01-31T23:05:51.083Z,99755.91
2023-01-31T23:08:31.930Z,99756.25
2023-01-31T23:11:19.404Z,99760.44
2023-01-31T23:13:56.743Z,99762.63
2023-01-31T23:16:47.123Z,99765.97
2023-01-31T23:19:22.628Z,99757.59
2023-01-31T23:22:08.892Z,99755.75
2023-01-31T23:24:49.034Z,99750.59
2023-01-31T23:27:34.710Z,99759.25
2023-01-31T23:30:22.784Z,99756.94
2023-01-31T23:32:54.375Z,99756.06
2023-01-31T23:35:29.270Z,99757.75
2023-01-31T23:38:06.759Z,99760.22
2023-01-31T23:40:42.377Z,99748.84
2023-01-31T23:43:20.554Z,99746.00
2023-01-31T23:46:01.447Z,99744.13
2023-01-31T23:48:41.507Z,99740.09
2023-01-31T23:51:16.852Z,99745.78
2023-01-31T23:54:02.520Z,99753.41
2023-01-31T23:56:42.784Z,99742.72
2023-01-31T23:59:20.792Z,99720.03
